sensor_id;sensor_type;location;lat;lon;timestamp;P1;P2;P0
65012;PMS5003;51715;39.432;-77.518;2023-08-07T00:00:55;16;15;
65012;PMS5003;51715;39.432;-77.518;2023-08-07T00:03:24;17;15;
65012;PMS5003;51715;39.432;-77.518;2023-08-07T00:05:51;16;16;
65012;PMS5003;51715;39.432;-77.518;2023-08-07T00:08:20;20;20;
65012;PMS5003;51715;39.432;-77.518;2023-08-07T00:10:48;18;18;
65012;PMS5003;51715;39.432;-77.518;2023-08-07T00:13:16;16;14;
65012;PMS5003;51715;39.432;-77.518;2023-08-07T00:15:44;18;17;
65012;PMS5003;51715;39.432;-77.518;2023-08-07T00:18:12;11;11;
65012;PMS5003;51715;39.432;-77.518;2023-08-07T00:20:40;15;15;
65012;PMS5003;51715;39.432;-77.518;2023-08-07T00:23:10;15;14;
65012;PMS5003;51715;39.432;-77.518;2023-08-07T00:25:38;14;13;
65012;PMS5003;51715;39.432;-77.518;2023-08-07T00:28:07;13;13;
65012;PMS5003;51715;39.432;-77.518;2023-08-07T00:30:35;13;13;
65012;PMS5003;51715;39.432;-77.518;2023-08-07T00:33:03;11;10;
65012;PMS5003;51715;39.432;-77.518;2023-08-07T00:35:32;12;12;
65012;PMS5003;51715;39.432;-77.518;2023-08-07T00:38:00;11;11;
65012;PMS5003;51715;39.432;-77.518;2023-08-07T00:40:35;10;10;
65012;PMS5003;51715;39.432;-77.518;2023-08-07T00:43:05;10;10;
65012;PMS5003;51715;39.432;-77.518;2023-08-07T00:45:35;10;9;
65012;PMS5003;51715;39.432;-77.518;2023-08-07T00:48:07;7;7;
65012;PMS5003;51715;39.432;-77.518;2023-08-07T00:50:37;10;10;
65012;PMS5003;51715;39.432;-77.518;2023-08-07T00:53:06;10;10;
65012;PMS5003;51715;39.432;-77.518;2023-08-07T00:55:36;13;11;
65012;PMS5003;51715;39.432;-77.518;2023-08-07T00:58:04;10;10;
65012;PMS5003;51715;39.432;-77.518;2023-08-07T01:00:33;9;9;
65012;PMS5003;51715;39.432;-77.518;2023-08-07T01:03:05;9;9;
65012;PMS5003;51715;39.432;-77.518;2023-08-07T01:05:34;12;11;
65012;PMS5003;51715;39.432;-77.518;2023-08-07T01:08:04;8;8;
65012;PMS5003;51715;39.432;-77.518;2023-08-07T01:10:34;8;7;
65012;PMS5003;51715;39.432;-77.518;2023-08-07T01:13:14;7;7;
65012;PMS5003;51715;39.432;-77.518;2023-08-07T01:15:49;7;7;
65012;PMS5003;51715;39.432;-77.518;2023-08-07T01:18:22;9;9;
65012;PMS5003;51715;39.432;-77.518;2023-08-07T01:20:51;8;7;
65012;PMS5003;51715;39.432;-77.518;2023-08-07T01:23:19;6;6;
65012;PMS5003;51715;39.432;-77.518;2023-08-07T01:25:48;11;10;
65012;PMS5003;51715;39.432;-77.518;2023-08-07T01:28:18;6;6;
65012;PMS5003;51715;39.432;-77.518;2023-08-07T01:30:54;11;11;
65012;PMS5003;51715;39.432;-77.518;2023-08-07T01:33:27;8;8;
65012;PMS5003;51715;39.432;-77.518;2023-08-07T01:36:02;10;9;
65012;PMS5003;51715;39.432;-77.518;2023-08-07T01:38:34;8;6;
65012;PMS5003;51715;39.432;-77.518;2023-08-07T01:41:04;10;9;
65012;PMS5003;51715;39.432;-77.518;2023-08-07T01:43:33;10;10;
65012;PMS5003;51715;39.432;-77.518;2023-08-07T01:46:02;11;10;
65012;PMS5003;51715;39.432;-77.518;2023-08-07T01:48:30;9;9;
65012;PMS5003;51715;39.432;-77.518;2023-08-07T01:50:59;10;10;
65012;PMS5003;51715;39.432;-77.518;2023-08-07T01:53:27;11;11;
65012;PMS5003;51715;39.432;-77.518;2023-08-07T01:55:56;13;13;
65012;PMS5003;51715;39.432;-77.518;2023-08-07T01:58:24;10;9;
65012;PMS5003;51715;39.432;-77.518;2023-08-07T02:00:53;11;10;
65012;PMS5003;51715;39.432;-77.518;2023-08-07T02:03:21;17;14;
65012;PMS5003;51715;39.432;-77.518;2023-08-07T02:05:50;11;11;
65012;PMS5003;51715;39.432;-77.518;2023-08-07T02:08:18;10;10;
65012;PMS5003;51715;39.432;-77.518;2023-08-07T02:10:47;14;13;
65012;PMS5003;51715;39.432;-77.518;2023-08-07T02:13:15;9;9;
65012;PMS5003;51715;39.432;-77.518;2023-08-07T02:15:43;13;11;
65012;PMS5003;51715;39.432;-77.518;2023-08-07T02:18:11;15;13;
65012;PMS5003;51715;39.432;-77.518;2023-08-07T02:20:40;13;13;
65012;PMS5003;51715;39.432;-77.518;2023-08-07T02:23:09;9;9;
65012;PMS5003;51715;39.432;-77.518;2023-08-07T02:25:37;12;11;
65012;PMS5003;51715;39.432;-77.518;2023-08-07T02:28:05;14;13;
65012;PMS5003;51715;39.432;-77.518;2023-08-07T02:30:34;13;13;
65012;PMS5003;51715;39.432;-77.518;2023-08-07T02:33:02;17;15;
65012;PMS5003;51715;39.432;-77.518;2023-08-07T02:35:31;21;20;
65012;PMS5003;51715;39.432;-77.518;2023-08-07T02:37:59;14;14;
65012;PMS5003;51715;39.432;-77.518;2023-08-07T02:40:27;16;16;
65012;PMS5003;51715;39.432;-77.518;2023-08-07T02:42:54;16;14;
65012;PMS5003;51715;39.432;-77.518;2023-08-07T02:45:22;18;18;
65012;PMS5003;51715;39.432;-77.518;2023-08-07T02:47:50;20;16;
65012;PMS5003;51715;39.432;-77.518;2023-08-07T02:50:19;17;16;
65012;PMS5003;51715;39.432;-77.518;2023-08-07T02:52:47;16;16;
65012;PMS5003;51715;39.432;-77.518;2023-08-07T02:55:16;15;15;
65012;PMS5003;51715;39.432;-77.518;2023-08-07T02:57:43;15;15;
65012;PMS5003;51715;39.432;-77.518;2023-08-07T03:00:11;19;17;
65012;PMS5003;51715;39.432;-77.518;2023-08-07T03:02:40;21;20;
65012;PMS5003;51715;39.432;-77.518;2023-08-07T03:05:09;15;15;
65012;PMS5003;51715;39.432;-77.518;2023-08-07T03:07:38;15;15;
65012;PMS5003;51715;39.432;-77.518;2023-08-07T03:10:06;18;17;
65012;PMS5003;51715;39.432;-77.518;2023-08-07T03:12:34;16;15;
65012;PMS5003;51715;39.432;-77.518;2023-08-07T03:15:03;20;19;
65012;PMS5003;51715;39.432;-77.518;2023-08-07T03:17:33;18;17;
65012;PMS5003;51715;39.432;-77.518;2023-08-07T03:20:00;17;16;
65012;PMS5003;51715;39.432;-77.518;2023-08-07T03:22:28;20;19;
65012;PMS5003;51715;39.432;-77.518;2023-08-07T03:24:57;18;18;
65012;PMS5003;51715;39.432;-77.518;2023-08-07T03:27:26;17;16;
65012;PMS5003;51715;39.432;-77.518;2023-08-07T03:29:54;21;20;
65012;PMS5003;51715;39.432;-77.518;2023-08-07T03:32:22;18;17;
65012;PMS5003;51715;39.432;-77.518;2023-08-07T03:34:50;22;19;
65012;PMS5003;51715;39.432;-77.518;2023-08-07T03:37:18;17;17;
65012;PMS5003;51715;39.432;-77.518;2023-08-07T03:39:47;15;14;
65012;PMS5003;51715;39.432;-77.518;2023-08-07T03:42:15;20;17;
65012;PMS5003;51715;39.432;-77.518;2023-08-07T03:44:43;20;18;
65012;PMS5003;51715;39.432;-77.518;2023-08-07T03:47:11;16;16;
65012;PMS5003;51715;39.432;-77.518;2023-08-07T03:49:39;16;15;
65012;PMS5003;51715;39.432;-77.518;2023-08-07T03:52:08;16;15;
65012;PMS5003;51715;39.432;-77.518;2023-08-07T03:54:36;14;14;
65012;PMS5003;51715;39.432;-77.518;2023-08-07T03:57:04;16;15;
65012;PMS5003;51715;39.432;-77.518;2023-08-07T03:59:33;16;16;
65012;PMS5003;51715;39.432;-77.518;2023-08-07T04:04:06;14;13;
65012;PMS5003;51715;39.432;-77.518;2023-08-07T04:06:34;19;19;
65012;PMS5003;51715;39.432;-77.518;2023-08-07T04:09:03;12;11;
65012;PMS5003;51715;39.432;-77.518;2023-08-07T04:11:31;16;15;
65012;PMS5003;51715;39.432;-77.518;2023-08-07T04:13:59;14;13;
65012;PMS5003;51715;39.432;-77.518;2023-08-07T04:16:28;20;20;
65012;PMS5003;51715;39.432;-77.518;2023-08-07T04:18:57;14;13;
65012;PMS5003;51715;39.432;-77.518;2023-08-07T04:21:25;13;12;
65012;PMS5003;51715;39.432;-77.518;2023-08-07T04:23:53;16;15;
65012;PMS5003;51715;39.432;-77.518;2023-08-07T04:26:22;10;10;
65012;PMS5003;51715;39.432;-77.518;2023-08-07T04:28:50;12;12;
65012;PMS5003;51715;39.432;-77.518;2023-08-07T04:31:19;15;15;
65012;PMS5003;51715;39.432;-77.518;2023-08-07T04:33:47;16;16;
65012;PMS5003;51715;39.432;-77.518;2023-08-07T04:36:15;13;12;
65012;PMS5003;51715;39.432;-77.518;2023-08-07T04:38:42;13;13;
65012;PMS5003;51715;39.432;-77.518;2023-08-07T04:41:10;11;11;
65012;PMS5003;51715;39.432;-77.518;2023-08-07T04:43:38;15;13;
65012;PMS5003;51715;39.432;-77.518;2023-08-07T04:46:07;13;12;
65012;PMS5003;51715;39.432;-77.518;2023-08-07T04:48:34;11;11;
65012;PMS5003;51715;39.432;-77.518;2023-08-07T04:51:03;13;13;
65012;PMS5003;51715;39.432;-77.518;2023-08-07T04:53:31;14;14;
65012;PMS5003;51715;39.432;-77.518;2023-08-07T04:55:59;15;15;
65012;PMS5003;51715;39.432;-77.518;2023-08-07T04:58:29;14;14;
65012;PMS5003;51715;39.432;-77.518;2023-08-07T05:00:57;11;11;
65012;PMS5003;51715;39.432;-77.518;2023-08-07T05:03:26;9;9;
65012;PMS5003;51715;39.432;-77.518;2023-08-07T05:05:58;13;12;
65012;PMS5003;51715;39.432;-77.518;2023-08-07T05:08:26;12;11;
65012;PMS5003;51715;39.432;-77.518;2023-08-07T05:10:54;12;11;
65012;PMS5003;51715;39.432;-77.518;2023-08-07T05:13:22;11;10;
65012;PMS5003;51715;39.432;-77.518;2023-08-07T05:15:51;14;14;
65012;PMS5003;51715;39.432;-77.518;2023-08-07T05:18:18;12;12;
65012;PMS5003;51715;39.432;-77.518;2023-08-07T05:20:47;12;12;
65012;PMS5003;51715;39.432;-77.518;2023-08-07T05:23:15;16;16;
65012;PMS5003;51715;39.432;-77.518;2023-08-07T05:25:44;14;13;
65012;PMS5003;51715;39.432;-77.518;2023-08-07T05:28:12;12;12;
65012;PMS5003;51715;39.432;-77.518;2023-08-07T05:30:40;13;13;
65012;PMS5003;51715;39.432;-77.518;2023-08-07T05:33:08;14;13;
65012;PMS5003;51715;39.432;-77.518;2023-08-07T05:35:37;9;9;
65012;PMS5003;51715;39.432;-77.518;2023-08-07T05:38:05;13;11;
65012;PMS5003;51715;39.432;-77.518;2023-08-07T05:40:33;11;11;
65012;PMS5003;51715;39.432;-77.518;2023-08-07T05:43:01;10;10;
65012;PMS5003;51715;39.432;-77.518;2023-08-07T05:45:29;14;12;
65012;PMS5003;51715;39.432;-77.518;2023-08-07T05:47:58;12;12;
65012;PMS5003;51715;39.432;-77.518;2023-08-07T05:50:26;11;10;
65012;PMS5003;51715;39.432;-77.518;2023-08-07T05:52:54;13;13;
65012;PMS5003;51715;39.432;-77.518;2023-08-07T05:55:23;16;12;
65012;PMS5003;51715;39.432;-77.518;2023-08-07T05:57:50;15;15;
65012;PMS5003;51715;39.432;-77.518;2023-08-07T06:00:18;14;14;
65012;PMS5003;51715;39.432;-77.518;2023-08-07T06:02:46;12;12;
65012;PMS5003;51715;39.432;-77.518;2023-08-07T06:05:15;20;17;
65012;PMS5003;51715;39.432;-77.518;2023-08-07T06:07:43;13;12;
65012;PMS5003;51715;39.432;-77.518;2023-08-07T06:10:12;14;14;
65012;PMS5003;51715;39.432;-77.518;2023-08-07T06:12:40;13;12;
65012;PMS5003;51715;39.432;-77.518;2023-08-07T06:15:09;16;14;
65012;PMS5003;51715;39.432;-77.518;2023-08-07T06:17:37;16;12;
65012;PMS5003;51715;39.432;-77.518;2023-08-07T06:20:06;13;13;
65012;PMS5003;51715;39.432;-77.518;2023-08-07T06:22:36;13;12;
65012;PMS5003;51715;39.432;-77.518;2023-08-07T06:25:05;13;13;
65012;PMS5003;51715;39.432;-77.518;2023-08-07T06:27:33;15;13;
65012;PMS5003;51715;39.432;-77.518;2023-08-07T06:30:02;12;11;
65012;PMS5003;51715;39.432;-77.518;2023-08-07T06:32:31;15;14;
65012;PMS5003;51715;39.432;-77.518;2023-08-07T06:34:59;18;18;
65012;PMS5003;51715;39.432;-77.518;2023-08-07T06:37:27;14;12;
65012;PMS5003;51715;39.432;-77.518;2023-08-07T06:39:56;10;10;
65012;PMS5003;51715;39.432;-77.518;2023-08-07T06:42:24;12;11;
65012;PMS5003;51715;39.432;-77.518;2023-08-07T06:44:52;11;10;
65012;PMS5003;51715;39.432;-77.518;2023-08-07T06:47:20;9;9;
65012;PMS5003;51715;39.432;-77.518;2023-08-07T06:49:49;10;10;
65012;PMS5003;51715;39.432;-77.518;2023-08-07T06:52:17;10;9;
65012;PMS5003;51715;39.432;-77.518;2023-08-07T06:54:46;12;11;
65012;PMS5003;51715;39.432;-77.518;2023-08-07T06:57:14;13;11;
65012;PMS5003;51715;39.432;-77.518;2023-08-07T06:59:42;13;13;
65012;PMS5003;51715;39.432;-77.518;2023-08-07T07:02:10;12;12;
65012;PMS5003;51715;39.432;-77.518;2023-08-07T07:04:38;12;10;
65012;PMS5003;51715;39.432;-77.518;2023-08-07T07:07:06;9;9;
65012;PMS5003;51715;39.432;-77.518;2023-08-07T07:09:35;12;12;
65012;PMS5003;51715;39.432;-77.518;2023-08-07T07:12:02;12;11;
65012;PMS5003;51715;39.432;-77.518;2023-08-07T07:14:32;11;10;
65012;PMS5003;51715;39.432;-77.518;2023-08-07T07:17:00;13;13;
65012;PMS5003;51715;39.432;-77.518;2023-08-07T07:19:29;15;12;
65012;PMS5003;51715;39.432;-77.518;2023-08-07T07:21:57;11;11;
65012;PMS5003;51715;39.432;-77.518;2023-08-07T07:24:25;11;11;
65012;PMS5003;51715;39.432;-77.518;2023-08-07T07:26:54;13;12;
65012;PMS5003;51715;39.432;-77.518;2023-08-07T07:29:23;10;10;
65012;PMS5003;51715;39.432;-77.518;2023-08-07T07:31:51;13;13;
65012;PMS5003;51715;39.432;-77.518;2023-08-07T07:34:19;13;12;
65012;PMS5003;51715;39.432;-77.518;2023-08-07T07:36:48;11;11;
65012;PMS5003;51715;39.432;-77.518;2023-08-07T07:39:15;10;10;
65012;PMS5003;51715;39.432;-77.518;2023-08-07T07:41:43;12;12;
65012;PMS5003;51715;39.432;-77.518;2023-08-07T07:44:12;19;17;
65012;PMS5003;51715;39.432;-77.518;2023-08-07T07:46:41;14;14;
65012;PMS5003;51715;39.432;-77.518;2023-08-07T07:49:09;17;14;
65012;PMS5003;51715;39.432;-77.518;2023-08-07T07:51:37;14;12;
65012;PMS5003;51715;39.432;-77.518;2023-08-07T07:54:05;12;12;
65012;PMS5003;51715;39.432;-77.518;2023-08-07T07:56:33;14;13;
65012;PMS5003;51715;39.432;-77.518;2023-08-07T07:59:02;14;14;
65012;PMS5003;51715;39.432;-77.518;2023-08-07T08:01:30;14;12;
65012;PMS5003;51715;39.432;-77.518;2023-08-07T08:04:00;17;17;
65012;PMS5003;51715;39.432;-77.518;2023-08-07T08:06:29;13;11;
65012;PMS5003;51715;39.432;-77.518;2023-08-07T08:08:58;11;9;
65012;PMS5003;51715;39.432;-77.518;2023-08-07T08:11:26;14;12;
65012;PMS5003;51715;39.432;-77.518;2023-08-07T08:13:53;15;15;
65012;PMS5003;51715;39.432;-77.518;2023-08-07T08:16:22;11;11;
65012;PMS5003;51715;39.432;-77.518;2023-08-07T08:18:50;12;11;
65012;PMS5003;51715;39.432;-77.518;2023-08-07T08:21:18;11;11;
65012;PMS5003;51715;39.432;-77.518;2023-08-07T08:23:47;12;12;
65012;PMS5003;51715;39.432;-77.518;2023-08-07T08:26:15;12;11;
65012;PMS5003;51715;39.432;-77.518;2023-08-07T08:28:44;15;13;
65012;PMS5003;51715;39.432;-77.518;2023-08-07T08:31:12;14;14;
65012;PMS5003;51715;39.432;-77.518;2023-08-07T08:33:40;13;13;
65012;PMS5003;51715;39.432;-77.518;2023-08-07T08:36:08;14;12;
65012;PMS5003;51715;39.432;-77.518;2023-08-07T08:38:36;11;11;
65012;PMS5003;51715;39.432;-77.518;2023-08-07T08:41:05;10;9;
65012;PMS5003;51715;39.432;-77.518;2023-08-07T08:43:36;9;9;
65012;PMS5003;51715;39.432;-77.518;2023-08-07T08:46:07;11;11;
65012;PMS5003;51715;39.432;-77.518;2023-08-07T08:48:36;14;12;
65012;PMS5003;51715;39.432;-77.518;2023-08-07T08:51:07;17;15;
65012;PMS5003;51715;39.432;-77.518;2023-08-07T08:53:37;11;11;
65012;PMS5003;51715;39.432;-77.518;2023-08-07T08:56:05;14;13;
65012;PMS5003;51715;39.432;-77.518;2023-08-07T08:58:34;14;14;
65012;PMS5003;51715;39.432;-77.518;2023-08-07T09:01:03;12;9;
65012;PMS5003;51715;39.432;-77.518;2023-08-07T09:03:32;12;12;
65012;PMS5003;51715;39.432;-77.518;2023-08-07T09:06:01;11;11;
65012;PMS5003;51715;39.432;-77.518;2023-08-07T09:08:30;12;11;
65012;PMS5003;51715;39.432;-77.518;2023-08-07T09:10:59;17;17;
65012;PMS5003;51715;39.432;-77.518;2023-08-07T09:13:28;12;12;
65012;PMS5003;51715;39.432;-77.518;2023-08-07T09:16:00;12;12;
65012;PMS5003;51715;39.432;-77.518;2023-08-07T09:18:28;10;10;
65012;PMS5003;51715;39.432;-77.518;2023-08-07T09:20:56;11;11;
65012;PMS5003;51715;39.432;-77.518;2023-08-07T09:23:25;10;10;
65012;PMS5003;51715;39.432;-77.518;2023-08-07T09:25:58;12;11;
65012;PMS5003;51715;39.432;-77.518;2023-08-07T09:28:27;15;14;
65012;PMS5003;51715;39.432;-77.518;2023-08-07T09:30:56;10;10;
65012;PMS5003;51715;39.432;-77.518;2023-08-07T09:33:25;11;10;
65012;PMS5003;51715;39.432;-77.518;2023-08-07T09:35:57;14;13;
65012;PMS5003;51715;39.432;-77.518;2023-08-07T09:38:27;12;12;
65012;PMS5003;51715;39.432;-77.518;2023-08-07T09:40:57;10;10;
65012;PMS5003;51715;39.432;-77.518;2023-08-07T09:43:25;11;11;
65012;PMS5003;51715;39.432;-77.518;2023-08-07T09:46:01;11;10;
65012;PMS5003;51715;39.432;-77.518;2023-08-07T09:48:30;11;11;
65012;PMS5003;51715;39.432;-77.518;2023-08-07T09:50:58;15;15;
65012;PMS5003;51715;39.432;-77.518;2023-08-07T09:53:29;16;16;
65012;PMS5003;51715;39.432;-77.518;2023-08-07T09:55:57;12;12;
65012;PMS5003;51715;39.432;-77.518;2023-08-07T09:58:26;13;13;
65012;PMS5003;51715;39.432;-77.518;2023-08-07T10:00:55;9;9;
65012;PMS5003;51715;39.432;-77.518;2023-08-07T10:03:25;10;10;
65012;PMS5003;51715;39.432;-77.518;2023-08-07T10:05:54;10;8;
65012;PMS5003;51715;39.432;-77.518;2023-08-07T10:08:23;11;11;
65012;PMS5003;51715;39.432;-77.518;2023-08-07T10:10:52;10;9;
65012;PMS5003;51715;39.432;-77.518;2023-08-07T10:13:20;12;10;
65012;PMS5003;51715;39.432;-77.518;2023-08-07T10:15:49;11;10;
65012;PMS5003;51715;39.432;-77.518;2023-08-07T10:18:17;10;10;
65012;PMS5003;51715;39.432;-77.518;2023-08-07T10:20:45;12;11;
65012;PMS5003;51715;39.432;-77.518;2023-08-07T10:23:14;9;9;
65012;PMS5003;51715;39.432;-77.518;2023-08-07T10:25:45;16;12;
65012;PMS5003;51715;39.432;-77.518;2023-08-07T10:28:16;10;10;
65012;PMS5003;51715;39.432;-77.518;2023-08-07T10:30:45;11;10;
65012;PMS5003;51715;39.432;-77.518;2023-08-07T10:33:13;12;12;
65012;PMS5003;51715;39.432;-77.518;2023-08-07T10:35:44;11;11;
65012;PMS5003;51715;39.432;-77.518;2023-08-07T10:38:13;12;11;
65012;PMS5003;51715;39.432;-77.518;2023-08-07T10:41:14;7;6;
65012;PMS5003;51715;39.432;-77.518;2023-08-07T10:43:42;8;8;
65012;PMS5003;51715;39.432;-77.518;2023-08-07T10:46:12;12;11;
65012;PMS5003;51715;39.432;-77.518;2023-08-07T10:48:41;12;12;
65012;PMS5003;51715;39.432;-77.518;2023-08-07T10:51:12;13;12;
65012;PMS5003;51715;39.432;-77.518;2023-08-07T10:53:41;9;9;
65012;PMS5003;51715;39.432;-77.518;2023-08-07T10:56:11;13;11;
65012;PMS5003;51715;39.432;-77.518;2023-08-07T10:58:49;11;10;
65012;PMS5003;51715;39.432;-77.518;2023-08-07T11:01:18;11;11;
65012;PMS5003;51715;39.432;-77.518;2023-08-07T11:03:50;11;11;
65012;PMS5003;51715;39.432;-77.518;2023-08-07T11:06:22;13;12;
65012;PMS5003;51715;39.432;-77.518;2023-08-07T11:08:51;12;12;
65012;PMS5003;51715;39.432;-77.518;2023-08-07T11:11:20;11;10;
65012;PMS5003;51715;39.432;-77.518;2023-08-07T11:13:48;10;9;
65012;PMS5003;51715;39.432;-77.518;2023-08-07T11:16:17;7;7;
65012;PMS5003;51715;39.432;-77.518;2023-08-07T11:18:45;12;11;
65012;PMS5003;51715;39.432;-77.518;2023-08-07T11:21:15;7;7;
65012;PMS5003;51715;39.432;-77.518;2023-08-07T11:23:44;9;9;
65012;PMS5003;51715;39.432;-77.518;2023-08-07T11:26:11;9;9;
65012;PMS5003;51715;39.432;-77.518;2023-08-07T11:28:40;9;8;
65012;PMS5003;51715;39.432;-77.518;2023-08-07T11:31:08;14;11;
65012;PMS5003;51715;39.432;-77.518;2023-08-07T11:33:36;12;10;
65012;PMS5003;51715;39.432;-77.518;2023-08-07T11:36:10;9;9;
65012;PMS5003;51715;39.432;-77.518;2023-08-07T11:38:39;9;9;
65012;PMS5003;51715;39.432;-77.518;2023-08-07T11:41:08;10;10;
65012;PMS5003;51715;39.432;-77.518;2023-08-07T11:43:38;10;10;
65012;PMS5003;51715;39.432;-77.518;2023-08-07T11:46:07;9;9;
65012;PMS5003;51715;39.432;-77.518;2023-08-07T11:48:36;7;7;
65012;PMS5003;51715;39.432;-77.518;2023-08-07T11:51:06;10;10;
65012;PMS5003;51715;39.432;-77.518;2023-08-07T11:53:36;8;8;
65012;PMS5003;51715;39.432;-77.518;2023-08-07T11:56:06;9;8;
65012;PMS5003;51715;39.432;-77.518;2023-08-07T11:58:37;11;9;
65012;PMS5003;51715;39.432;-77.518;2023-08-07T12:01:06;7;7;
65012;PMS5003;51715;39.432;-77.518;2023-08-07T12:03:37;11;9;
65012;PMS5003;51715;39.432;-77.518;2023-08-07T12:06:08;11;11;
65012;PMS5003;51715;39.432;-77.518;2023-08-07T12:08:36;10;10;
65012;PMS5003;51715;39.432;-77.518;2023-08-07T12:11:06;9;9;
65012;PMS5003;51715;39.432;-77.518;2023-08-07T12:13:37;7;7;
65012;PMS5003;51715;39.432;-77.518;2023-08-07T12:16:06;11;11;
65012;PMS5003;51715;39.432;-77.518;2023-08-07T12:18:35;8;8;
65012;PMS5003;51715;39.432;-77.518;2023-08-07T12:21:05;12;10;
65012;PMS5003;51715;39.432;-77.518;2023-08-07T12:23:35;10;9;
65012;PMS5003;51715;39.432;-77.518;2023-08-07T12:26:04;9;8;
65012;PMS5003;51715;39.432;-77.518;2023-08-07T12:28:33;10;10;
65012;PMS5003;51715;39.432;-77.518;2023-08-07T12:31:03;8;8;
65012;PMS5003;51715;39.432;-77.518;2023-08-07T12:33:31;13;11;
65012;PMS5003;51715;39.432;-77.518;2023-08-07T12:35:59;8;8;
65012;PMS5003;51715;39.432;-77.518;2023-08-07T12:38:28;12;11;
65012;PMS5003;51715;39.432;-77.518;2023-08-07T12:40:56;10;10;
65012;PMS5003;51715;39.432;-77.518;2023-08-07T12:43:25;10;10;
65012;PMS5003;51715;39.432;-77.518;2023-08-07T12:45:53;9;9;
65012;PMS5003;51715;39.432;-77.518;2023-08-07T12:48:21;9;9;
65012;PMS5003;51715;39.432;-77.518;2023-08-07T12:50:50;10;10;
65012;PMS5003;51715;39.432;-77.518;2023-08-07T12:53:18;11;11;
65012;PMS5003;51715;39.432;-77.518;2023-08-07T12:55:46;8;8;
65012;PMS5003;51715;39.432;-77.518;2023-08-07T12:58:14;11;11;
65012;PMS5003;51715;39.432;-77.518;2023-08-07T13:00:42;7;7;
65012;PMS5003;51715;39.432;-77.518;2023-08-07T13:03:10;16;15;
65012;PMS5003;51715;39.432;-77.518;2023-08-07T13:05:38;10;9;
65012;PMS5003;51715;39.432;-77.518;2023-08-07T13:08:08;8;8;
65012;PMS5003;51715;39.432;-77.518;2023-08-07T13:10:36;7;7;
65012;PMS5003;51715;39.432;-77.518;2023-08-07T13:13:05;10;10;
65012;PMS5003;51715;39.432;-77.518;2023-08-07T13:15:33;9;8;
65012;PMS5003;51715;39.432;-77.518;2023-08-07T13:18:00;10;9;
65012;PMS5003;51715;39.432;-77.518;2023-08-07T13:20:29;10;10;
65012;PMS5003;51715;39.432;-77.518;2023-08-07T13:22:58;11;10;
65012;PMS5003;51715;39.432;-77.518;2023-08-07T13:25:27;8;8;
65012;PMS5003;51715;39.432;-77.518;2023-08-07T13:27:54;9;9;
65012;PMS5003;51715;39.432;-77.518;2023-08-07T13:30:23;7;7;
65012;PMS5003;51715;39.432;-77.518;2023-08-07T13:32:51;6;6;
65012;PMS5003;51715;39.432;-77.518;2023-08-07T13:35:20;7;7;
65012;PMS5003;51715;39.432;-77.518;2023-08-07T13:37:48;8;8;
65012;PMS5003;51715;39.432;-77.518;2023-08-07T13:40:17;9;9;
65012;PMS5003;51715;39.432;-77.518;2023-08-07T13:42:45;10;8;
65012;PMS5003;51715;39.432;-77.518;2023-08-07T13:45:14;6;6;
65012;PMS5003;51715;39.432;-77.518;2023-08-07T13:47:43;9;9;
65012;PMS5003;51715;39.432;-77.518;2023-08-07T13:50:10;11;11;
65012;PMS5003;51715;39.432;-77.518;2023-08-07T13:52:39;8;8;
65012;PMS5003;51715;39.432;-77.518;2023-08-07T13:55:07;5;5;
65012;PMS5003;51715;39.432;-77.518;2023-08-07T13:57:35;9;9;
65012;PMS5003;51715;39.432;-77.518;2023-08-07T14:00:05;10;8;
65012;PMS5003;51715;39.432;-77.518;2023-08-07T14:02:34;10;8;
65012;PMS5003;51715;39.432;-77.518;2023-08-07T14:05:02;7;7;
65012;PMS5003;51715;39.432;-77.518;2023-08-07T14:07:31;11;9;
65012;PMS5003;51715;39.432;-77.518;2023-08-07T14:09:59;10;10;
65012;PMS5003;51715;39.432;-77.518;2023-08-07T14:12:27;8;8;
65012;PMS5003;51715;39.432;-77.518;2023-08-07T14:14:56;11;9;
65012;PMS5003;51715;39.432;-77.518;2023-08-07T14:17:25;8;8;
65012;PMS5003;51715;39.432;-77.518;2023-08-07T14:19:54;7;7;
65012;PMS5003;51715;39.432;-77.518;2023-08-07T14:22:22;9;8;
65012;PMS5003;51715;39.432;-77.518;2023-08-07T14:24:50;8;7;
65012;PMS5003;51715;39.432;-77.518;2023-08-07T14:27:18;23;18;
65012;PMS5003;51715;39.432;-77.518;2023-08-07T14:29:46;9;9;
65012;PMS5003;51715;39.432;-77.518;2023-08-07T14:32:13;8;8;
65012;PMS5003;51715;39.432;-77.518;2023-08-07T14:34:41;18;17;
65012;PMS5003;51715;39.432;-77.518;2023-08-07T14:37:09;13;11;
65012;PMS5003;51715;39.432;-77.518;2023-08-07T14:39:37;23;21;
65012;PMS5003;51715;39.432;-77.518;2023-08-07T14:42:06;9;9;
65012;PMS5003;51715;39.432;-77.518;2023-08-07T14:44:34;9;7;
65012;PMS5003;51715;39.432;-77.518;2023-08-07T14:47:03;8;8;
65012;PMS5003;51715;39.432;-77.518;2023-08-07T14:49:32;7;7;
65012;PMS5003;51715;39.432;-77.518;2023-08-07T14:52:00;7;7;
65012;PMS5003;51715;39.432;-77.518;2023-08-07T14:54:29;10;10;
65012;PMS5003;51715;39.432;-77.518;2023-08-07T14:56:57;12;12;
65012;PMS5003;51715;39.432;-77.518;2023-08-07T14:59:26;9;9;
65012;PMS5003;51715;39.432;-77.518;2023-08-07T15:01:53;10;10;
65012;PMS5003;51715;39.432;-77.518;2023-08-07T15:04:22;9;9;
65012;PMS5003;51715;39.432;-77.518;2023-08-07T15:06:51;7;7;
65012;PMS5003;51715;39.432;-77.518;2023-08-07T15:09:19;9;9;
65012;PMS5003;51715;39.432;-77.518;2023-08-07T15:11:47;11;11;
65012;PMS5003;51715;39.432;-77.518;2023-08-07T15:14:15;8;7;
65012;PMS5003;51715;39.432;-77.518;2023-08-07T15:16:45;7;7;
65012;PMS5003;51715;39.432;-77.518;2023-08-07T15:19:13;8;8;
65012;PMS5003;51715;39.432;-77.518;2023-08-07T15:21:41;10;9;
65012;PMS5003;51715;39.432;-77.518;2023-08-07T15:24:10;10;10;
65012;PMS5003;51715;39.432;-77.518;2023-08-07T15:26:38;9;9;
65012;PMS5003;51715;39.432;-77.518;2023-08-07T15:29:06;10;10;
65012;PMS5003;51715;39.432;-77.518;2023-08-07T15:31:34;9;9;
65012;PMS5003;51715;39.432;-77.518;2023-08-07T15:34:03;9;9;
65012;PMS5003;51715;39.432;-77.518;2023-08-07T15:36:30;8;8;
65012;PMS5003;51715;39.432;-77.518;2023-08-07T15:38:59;9;7;
65012;PMS5003;51715;39.432;-77.518;2023-08-07T15:41:27;9;9;
65012;PMS5003;51715;39.432;-77.518;2023-08-07T15:43:56;7;7;
65012;PMS5003;51715;39.432;-77.518;2023-08-07T15:46:25;10;10;
65012;PMS5003;51715;39.432;-77.518;2023-08-07T15:48:53;8;8;
65012;PMS5003;51715;39.432;-77.518;2023-08-07T15:51:21;11;10;
65012;PMS5003;51715;39.432;-77.518;2023-08-07T15:53:50;9;9;
65012;PMS5003;51715;39.432;-77.518;2023-08-07T15:56:18;11;8;
65012;PMS5003;51715;39.432;-77.518;2023-08-07T15:58:45;9;8;
65012;PMS5003;51715;39.432;-77.518;2023-08-07T16:01:14;8;8;
65012;PMS5003;51715;39.432;-77.518;2023-08-07T16:03:43;11;11;
65012;PMS5003;51715;39.432;-77.518;2023-08-07T16:06:10;12;12;